createdAt,value
2023-02-06T00:01:42.102Z,58.66
2023-02-06T00:04:11.806Z,58.14
2023-02-06T00:06:40.198Z,59.00
2023-02-06T00:09:08.922Z,59.96
2023-02-06T00:11:37.657Z,59.72
2023-02-06T00:14:05.570Z,59.49
2023-02-06T00:16:34.935Z,58.86
2023-02-06T00:19:03.698Z,58.89
2023-02-06T00:21:33.268Z,58.34
2023-02-06T00:24:02.630Z,58.12
2023-02-06T00:26:31.942Z,58.77
2023-02-06T00:28:59.826Z,59.81
2023-02-06T00:31:28.268Z,59.97
2023-02-06T00:33:56.164Z,60.51
2023-02-06T00:36:24.314Z,60.56
2023-02-06T00:38:52.517Z,60.50
2023-02-06T00:41:21.521Z,60.82
2023-02-06T00:43:52.021Z,60.67
2023-02-06T00:46:21.212Z,60.58
2023-02-06T00:48:49.195Z,59.97
2023-02-06T00:51:17.538Z,60.38
2023-02-06T00:53:45.641Z,60.53
2023-02-06T00:56:14.511Z,60.50
2023-02-06T00:58:42.379Z,61.13
2023-02-06T01:01:12.718Z,60.42
2023-02-06T01:03:40.558Z,59.75
2023-02-06T01:06:11.065Z,59.99
2023-02-06T01:08:39.105Z,59.94
2023-02-06T01:11:18.667Z,59.76
2023-02-06T01:13:47.132Z,59.88
2023-02-06T01:16:22.424Z,59.59
2023-02-06T01:18:50.678Z,59.56
2023-02-06T01:21:22.471Z,59.65
2023-02-06T01:23:53.789Z,61.87
2023-02-06T01:26:24.934Z,61.85
2023-02-06T01:28:53.342Z,62.25
2023-02-06T01:31:28.088Z,63.05
2023-02-06T01:33:58.158Z,63.37
2023-02-06T01:36:27.417Z,62.74
2023-02-06T01:38:58.422Z,61.85
2023-02-06T01:41:26.762Z,61.55
2023-02-06T01:44:15.803Z,60.72
2023-02-06T01:46:47.614Z,60.66
2023-02-06T01:49:30.766Z,60.66
2023-02-06T01:52:15.734Z,60.04
2023-02-06T01:54:48.991Z,60.09
2023-02-06T01:57:19.148Z,60.19
2023-02-06T01:59:51.877Z,60.32
2023-02-06T02:02:21.676Z,60.12
2023-02-06T02:04:49.740Z,59.90
2023-02-06T02:07:22.281Z,59.33
2023-02-06T02:09:50.202Z,59.95
2023-02-06T02:12:20.020Z,60.05
2023-02-06T02:14:51.718Z,59.57
2023-02-06T02:17:26.137Z,59.50
2023-02-06T02:20:28.644Z,59.47
2023-02-06T02:23:29.988Z,58.80
2023-02-06T02:26:00.305Z,59.30
2023-02-06T02:28:28.496Z,60.50
2023-02-06T02:31:05.682Z,62.59
2023-02-06T02:33:37.237Z,61.91
2023-02-06T02:36:23.323Z,61.10
2023-02-06T02:39:04.260Z,60.67
2023-02-06T02:41:36.960Z,60.21
2023-02-06T02:44:16.250Z,59.81
2023-02-06T02:46:48.445Z,59.22
2023-02-06T02:49:22.318Z,59.43
2023-02-06T02:51:51.917Z,60.27
2023-02-06T02:54:20.465Z,59.66
2023-02-06T02:56:48.590Z,60.10
2023-02-06T02:59:24.277Z,60.11
2023-02-06T03:02:01.738Z,60.12
2023-02-06T03:04:54.030Z,59.60
2023-02-06T03:07:35.595Z,59.98
2023-02-06T03:10:26.059Z,59.86
2023-02-06T03:13:32.336Z,59.45
2023-02-06T03:16:15.901Z,59.73
2023-02-06T03:18:52.929Z,59.76
2023-02-06T03:21:24.056Z,59.92
2023-02-06T03:23:56.229Z,59.76
2023-02-06T03:26:29.273Z,59.48
2023-02-06T03:29:02.802Z,61.31
2023-02-06T03:31:39.511Z,61.17
2023-02-06T03:34:16.541Z,60.67
2023-02-06T03:36:44.810Z,59.95
2023-02-06T03:39:13.306Z,60.81
2023-02-06T03:41:44.019Z,61.39
2023-02-06T03:44:17.580Z,63.26
2023-02-06T03:46:48.015Z,63.47
2023-02-06T03:49:19.596Z,63.81
2023-02-06T03:51:57.765Z,64.45
2023-02-06T03:54:27.493Z,63.96
2023-02-06T03:57:01.487Z,65.83
2023-02-06T03:59:31.125Z,65.41
2023-02-06T04:02:03.118Z,65.68
2023-02-06T04:04:35.323Z,65.81
2023-02-06T04:07:20.285Z,65.94
2023-02-06T04:09:48.356Z,65.86
2023-02-06T04:12:17.648Z,66.23
2023-02-06T04:14:46.259Z,66.34
2023-02-06T04:17:23.822Z,66.26
2023-02-06T04:19:59.340Z,67.06
2023-02-06T04:22:28.969Z,66.90
2023-02-06T04:24:57.021Z,67.40
2023-02-06T04:27:25.496Z,67.43
2023-02-06T04:29:53.285Z,67.81
2023-02-06T04:32:21.535Z,67.42
2023-02-06T04:34:49.440Z,68.22
2023-02-06T04:37:17.620Z,67.26
2023-02-06T04:39:45.375Z,68.60
2023-02-06T04:42:14.002Z,68.83
2023-02-06T04:44:41.927Z,68.64
2023-02-06T04:47:09.985Z,68.59
2023-02-06T04:49:37.869Z,69.59
2023-02-06T04:52:06.017Z,71.18
2023-02-06T04:54:33.941Z,72.64
2023-02-06T04:57:02.086Z,72.53
2023-02-06T04:59:29.987Z,73.42
2023-02-06T05:01:58.140Z,72.03
2023-02-06T05:04:26.053Z,72.23
2023-02-06T05:06:54.502Z,72.42
2023-02-06T05:09:22.510Z,72.11
2023-02-06T05:11:50.935Z,72.50
2023-02-06T05:14:18.798Z,72.63
2023-02-06T05:16:47.018Z,71.88
2023-02-06T05:19:14.879Z,71.84
2023-02-06T05:21:43.181Z,72.76
2023-02-06T05:24:10.936Z,72.96
2023-02-06T05:26:39.119Z,72.31
2023-02-06T05:29:07.772Z,71.69
2023-02-06T05:31:36.413Z,72.15
2023-02-06T05:34:04.218Z,71.82
2023-02-06T05:36:33.155Z,72.46
2023-02-06T05:39:01.034Z,73.02
2023-02-06T05:41:29.200Z,73.99
2023-02-06T05:43:57.082Z,72.91
2023-02-06T05:46:25.224Z,72.57
2023-02-06T05:48:53.000Z,73.64
2023-02-06T05:51:21.370Z,73.20
2023-02-06T05:53:49.194Z,73.45
2023-02-06T05:56:17.410Z,72.25
2023-02-06T05:58:45.260Z,73.23
2023-02-06T06:01:13.948Z,73.20
2023-02-06T06:03:41.853Z,72.04
2023-02-06T06:06:10.655Z,72.49
2023-02-06T06:08:39.400Z,72.07
2023-02-06T06:11:08.466Z,73.66
2023-02-06T06:13:36.660Z,73.27
2023-02-06T06:16:05.112Z,73.17
2023-02-06T06:18:32.970Z,72.83
2023-02-06T06:21:01.173Z,73.99
2023-02-06T06:23:29.014Z,72.62
2023-02-06T06:25:57.240Z,73.18
2023-02-06T06:28:25.077Z,73.22
2023-02-06T06:31:04.109Z,73.07
2023-02-06T06:33:32.115Z,73.59
2023-02-06T06:36:00.485Z,73.55
2023-02-06T06:38:28.262Z,74.37
2023-02-06T06:40:56.504Z,74.28
2023-02-06T06:43:25.036Z,74.52
2023-02-06T06:45:55.254Z,75.26
2023-02-06T06:48:23.319Z,74.52
2023-02-06T06:50:51.634Z,73.38
2023-02-06T06:53:19.454Z,73.87
2023-02-06T06:55:47.767Z,74.85
2023-02-06T06:58:16.123Z,75.28
2023-02-06T07:00:45.688Z,74.35
2023-02-06T07:03:13.708Z,73.17
2023-02-06T07:05:41.844Z,74.90
2023-02-06T07:08:10.370Z,74.12
2023-02-06T07:10:40.178Z,73.67
2023-02-06T07:13:08.505Z,72.63
2023-02-06T07:15:36.909Z,73.33
2023-02-06T07:18:06.537Z,75.13
2023-02-06T07:20:38.644Z,74.53
2023-02-06T07:23:06.588Z,74.85
2023-02-06T07:25:35.854Z,74.09
2023-02-06T07:28:05.105Z,75.33
2023-02-06T07:30:33.525Z,75.51
2023-02-06T07:33:01.669Z,75.87
2023-02-06T07:35:30.913Z,74.81
2023-02-06T07:37:58.849Z,73.34
2023-02-06T07:40:43.078Z,76.00
2023-02-06T07:43:14.985Z,75.63
2023-02-06T07:45:44.101Z,74.81
2023-02-06T07:48:12.846Z,74.45
2023-02-06T07:50:41.034Z,74.64
2023-02-06T07:53:09.471Z,75.29
2023-02-06T07:55:38.746Z,75.55
2023-02-06T07:58:26.016Z,75.67
2023-02-06T08:00:55.170Z,76.62
2023-02-06T08:03:22.992Z,75.52
2023-02-06T08:05:51.365Z,75.17
2023-02-06T08:08:19.287Z,75.28
2023-02-06T08:10:48.375Z,75.15
2023-02-06T08:13:16.534Z,75.12
2023-02-06T08:15:45.328Z,74.95
2023-02-06T08:18:16.103Z,73.61
2023-02-06T08:20:44.364Z,74.32
2023-02-06T08:23:12.107Z,74.68
2023-02-06T08:25:40.205Z,73.64
2023-02-06T08:28:08.149Z,74.53
2023-02-06T08:30:37.275Z,76.61
2023-02-06T08:33:05.448Z,75.66
2023-02-06T08:35:34.542Z,75.07
2023-02-06T08:38:02.541Z,75.68
2023-02-06T08:40:33.224Z,75.99
2023-02-06T08:43:01.097Z,75.13
2023-02-06T08:45:29.230Z,75.69
2023-02-06T08:47:57.547Z,74.28
2023-02-06T08:50:25.717Z,74.62
2023-02-06T08:52:53.454Z,73.72
2023-02-06T08:55:25.341Z,74.50
2023-02-06T08:57:53.564Z,74.21
2023-02-06T09:00:22.810Z,74.63
2023-02-06T09:02:53.117Z,73.26
2023-02-06T09:05:22.379Z,74.35
2023-02-06T09:07:51.204Z,73.99
2023-02-06T09:10:27.412Z,73.84
2023-02-06T09:12:55.618Z,74.44
2023-02-06T09:15:23.775Z,72.56
2023-02-06T09:17:51.725Z,72.99
2023-02-06T09:20:20.117Z,73.57
2023-02-06T09:22:47.930Z,73.98
2023-02-06T09:25:16.129Z,73.10
2023-02-06T09:27:47.004Z,71.02
2023-02-06T09:30:17.316Z,71.09
2023-02-06T09:32:45.216Z,69.94
2023-02-06T09:35:13.449Z,67.38
2023-02-06T09:37:42.763Z,68.79
2023-02-06T09:40:13.115Z,68.47
2023-02-06T09:42:42.515Z,67.50
2023-02-06T09:45:17.236Z,67.17
2023-02-06T09:47:50.631Z,68.21
2023-02-06T09:50:24.491Z,66.55
2023-02-06T09:53:04.378Z,66.75
2023-02-06T09:55:49.001Z,65.24
2023-02-06T09:58:36.754Z,66.16
2023-02-06T10:01:53.353Z,63.80
2023-02-06T10:04:30.008Z,63.84
2023-02-06T10:07:27.924Z,63.56
2023-02-06T10:10:14.389Z,62.58
2023-02-06T10:12:57.541Z,61.91
2023-02-06T10:15:35.173Z,63.43
2023-02-06T10:18:10.696Z,62.05
2023-02-06T10:20:49.654Z,62.50
2023-02-06T10:23:33.293Z,62.02
2023-02-06T10:26:17.393Z,62.22
2023-02-06T10:28:49.953Z,61.30
2023-02-06T10:31:27.359Z,61.17
2023-02-06T10:34:29.122Z,61.09
2023-02-06T10:37:18.250Z,61.49
2023-02-06T10:40:32.952Z,60.26
2023-02-06T10:43:16.707Z,62.89
2023-02-06T10:46:12.901Z,62.14
2023-02-06T10:48:49.773Z,61.16
2023-02-06T10:51:20.782Z,61.73
2023-02-06T10:54:04.930Z,60.89
2023-02-06T10:56:45.194Z,58.66
2023-02-06T10:59:19.219Z,59.35
2023-02-06T11:01:49.592Z,59.06
2023-02-06T11:04:36.271Z,57.92
2023-02-06T11:07:10.127Z,56.91
2023-02-06T11:09:38.168Z,57.39
2023-02-06T11:12:24.328Z,57.39
2023-02-06T11:14:55.486Z,57.88
2023-02-06T11:17:28.437Z,58.00
2023-02-06T11:20:17.491Z,58.15
2023-02-06T11:22:53.175Z,58.51
2023-02-06T11:25:28.667Z,59.05
2023-02-06T11:27:58.643Z,58.60
2023-02-06T11:30:35.980Z,58.34
2023-02-06T11:33:25.530Z,57.91
2023-02-06T11:36:00.391Z,58.33
2023-02-06T11:38:30.876Z,57.57
2023-02-06T11:41:05.973Z,57.22
2023-02-06T11:43:50.399Z,57.54
2023-02-06T11:46:26.894Z,57.45
2023-02-06T11:48:55.131Z,56.81
2023-02-06T11:51:24.755Z,57.35
2023-02-06T11:54:00.621Z,58.63
2023-02-06T11:56:30.687Z,57.44
2023-02-06T11:59:07.155Z,56.72
2023-02-06T12:01:39.170Z,56.71
2023-02-06T12:04:24.227Z,57.40
2023-02-06T12:07:01.359Z,56.85
2023-02-06T12:09:30.296Z,57.07
2023-02-06T12:12:03.770Z,57.74
2023-02-06T12:14:40.649Z,55.88
2023-02-06T12:17:20.334Z,55.93
2023-02-06T12:19:57.571Z,55.71
2023-02-06T12:22:27.055Z,55.00
2023-02-06T12:24:57.377Z,55.25
2023-02-06T12:27:39.414Z,55.28
2023-02-06T12:30:51.564Z,55.39
2023-02-06T12:33:23.803Z,55.72
2023-02-06T12:36:06.225Z,56.56
2023-02-06T12:38:57.791Z,56.88
2023-02-06T12:41:53.743Z,55.33
2023-02-06T12:44:50.345Z,55.79
2023-02-06T12:47:46.281Z,56.31
2023-02-06T12:50:32.655Z,55.64
2023-02-06T12:53:15.756Z,55.12
2023-02-06T12:56:30.042Z,54.78
2023-02-06T12:59:07.323Z,55.11
2023-02-06T13:02:17.017Z,55.97
2023-02-06T13:04:47.247Z,56.62
2023-02-06T13:07:19.718Z,55.95
2023-02-06T13:09:52.757Z,54.96
2023-02-06T13:12:24.833Z,55.45
2023-02-06T13:14:56.847Z,55.62
2023-02-06T13:17:28.228Z,56.32
2023-02-06T13:20:09.880Z,55.28
2023-02-06T13:22:40.050Z,57.15
2023-02-06T13:25:28.048Z,57.59
2023-02-06T13:27:57.703Z,57.44
2023-02-06T13:30:31.865Z,57.87
2023-02-06T13:33:09.180Z,57.02
2023-02-06T13:35:56.024Z,55.93
2023-02-06T13:38:23.863Z,55.70
2023-02-06T13:41:14.384Z,56.34
2023-02-06T13:43:51.886Z,56.65
2023-02-06T13:46:24.127Z,57.31
2023-02-06T13:49:12.446Z,56.74
2023-02-06T13:52:09.799Z,56.69
2023-02-06T13:55:03.248Z,55.78
2023-02-06T13:58:08.741Z,56.36
2023-02-06T14:00:42.337Z,56.69
2023-02-06T14:03:24.783Z,56.46
2023-02-06T14:06:27.042Z,55.97
2023-02-06T14:09:45.245Z,57.19
2023-02-06T14:12:39.109Z,56.65
2023-02-06T14:15:23.206Z,56.26
2023-02-06T14:18:15.571Z,56.70
2023-02-06T14:21:04.450Z,55.25
2023-02-06T14:23:47.854Z,55.53
2023-02-06T14:26:53.142Z,55.64
2023-02-06T14:29:45.604Z,54.29
2023-02-06T14:32:38.175Z,53.93
2023-02-06T14:35:31.270Z,54.28
2023-02-06T14:38:18.847Z,53.67
2023-02-06T14:40:51.533Z,54.77
2023-02-06T14:43:27.791Z,55.20
2023-02-06T14:46:06.894Z,54.94
2023-02-06T14:48:54.525Z,56.24
2023-02-06T14:51:34.223Z,57.04
2023-02-06T14:54:26.977Z,56.71
2023-02-06T14:57:00.722Z,56.38
2023-02-06T14:59:30.160Z,56.55
2023-02-06T15:02:00.460Z,56.76
2023-02-06T15:04:30.654Z,56.45
2023-02-06T15:07:02.387Z,57.32
2023-02-06T15:09:39.262Z,57.48
2023-02-06T15:12:22.942Z,56.58
2023-02-06T15:14:56.767Z,57.01
2023-02-06T15:17:28.801Z,57.33
2023-02-06T15:19:57.305Z,57.95
2023-02-06T15:22:36.216Z,58.56
2023-02-06T15:25:36.343Z,58.55
2023-02-06T15:28:07.563Z,57.98
2023-02-06T15:30:37.834Z,57.88
2023-02-06T15:33:10.917Z,57.79
2023-02-06T15:35:50.161Z,56.73
2023-02-06T15:38:18.287Z,57.47
2023-02-06T15:40:59.339Z,58.37
2023-02-06T15:43:28.157Z,57.90
2023-02-06T15:46:00.301Z,58.31
2023-02-06T15:48:49.697Z,58.22
2023-02-06T15:51:27.946Z,57.72
2023-02-06T15:54:19.098Z,57.56
2023-02-06T15:57:01.334Z,57.85
2023-02-06T15:59:30.127Z,58.15
2023-02-06T16:01:59.095Z,57.93
2023-02-06T16:04:41.592Z,58.18
2023-02-06T16:07:17.489Z,57.47
2023-02-06T16:09:56.934Z,57.73
2023-02-06T16:12:26.729Z,58.52
2023-02-06T16:14:59.926Z,58.56
2023-02-06T16:17:36.348Z,58.08
2023-02-06T16:20:32.820Z,58.51
2023-02-06T16:23:28.506Z,59.52
2023-02-06T16:26:10.534Z,59.46
2023-02-06T16:28:49.950Z,60.23
2023-02-06T16:31:18.340Z,59.84
2023-02-06T16:33:51.033Z,60.21
2023-02-06T16:36:21.848Z,60.70
2023-02-06T16:39:02.804Z,59.44
2023-02-06T16:41:38.732Z,60.14
2023-02-06T16:44:13.306Z,59.23
2023-02-06T16:46:42.852Z,59.72
2023-02-06T16:49:17.664Z,59.71
2023-02-06T16:51:48.324Z,58.59
2023-02-06T16:54:28.576Z,59.48
2023-02-06T16:57:03.235Z,60.73
2023-02-06T16:59:37.971Z,60.17
2023-02-06T17:02:12.538Z,60.21
2023-02-06T17:04:44.681Z,60.50
2023-02-06T17:07:22.383Z,60.29
2023-02-06T17:09:54.756Z,60.44
2023-02-06T17:12:25.397Z,60.47
2023-02-06T17:14:55.986Z,60.14
2023-02-06T17:17:24.679Z,60.46
2023-02-06T17:19:55.174Z,60.25
2023-02-06T17:22:24.295Z,61.32
2023-02-06T17:24:55.251Z,60.73
2023-02-06T17:27:23.872Z,60.39
2023-02-06T17:29:54.363Z,61.19
2023-02-06T17:32:23.301Z,60.67
2023-02-06T17:34:54.581Z,60.69
2023-02-06T17:37:23.244Z,60.96
2023-02-06T17:39:52.760Z,61.05
2023-02-06T17:42:23.661Z,61.11
2023-02-06T17:44:53.174Z,61.94
2023-02-06T17:47:21.332Z,60.97
2023-02-06T17:49:50.106Z,60.68
2023-02-06T17:52:19.368Z,60.58
2023-02-06T17:54:48.545Z,60.32
2023-02-06T17:57:17.509Z,61.10
2023-02-06T17:59:46.529Z,60.94
2023-02-06T18:02:15.455Z,60.78
2023-02-06T18:04:45.359Z,60.27
2023-02-06T18:07:13.922Z,60.29
2023-02-06T18:09:42.723Z,60.96
2023-02-06T18:12:11.384Z,60.60
2023-02-06T18:14:41.038Z,60.29
2023-02-06T18:17:11.092Z,60.05
2023-02-06T18:19:44.802Z,60.91
2023-02-06T18:22:20.568Z,60.96
2023-02-06T18:24:51.560Z,59.96
2023-02-06T18:27:21.719Z,60.40
2023-02-06T18:29:55.608Z,59.29
2023-02-06T18:32:24.346Z,60.29
2023-02-06T18:34:53.549Z,60.94
2023-02-06T18:37:22.516Z,59.91
2023-02-06T18:39:51.969Z,59.53
2023-02-06T18:42:38.828Z,60.28
2023-02-06T18:45:08.964Z,60.08
2023-02-06T18:47:37.292Z,60.03
2023-02-06T18:50:06.447Z,59.87
2023-02-06T18:52:34.205Z,59.94
2023-02-06T18:55:02.608Z,59.96
2023-02-06T18:57:30.948Z,59.57
2023-02-06T18:59:59.136Z,60.30
2023-02-06T19:02:27.599Z,60.88
2023-02-06T19:04:58.324Z,60.64
2023-02-06T19:07:26.400Z,60.75
2023-02-06T19:10:00.144Z,59.83
2023-02-06T19:12:29.426Z,61.08
2023-02-06T19:14:59.031Z,60.33
2023-02-06T19:17:28.503Z,59.80
2023-02-06T19:19:57.423Z,60.57
2023-02-06T19:22:26.413Z,62.67
2023-02-06T19:24:57.337Z,63.88
2023-02-06T19:27:26.452Z,64.00
2023-02-06T19:29:54.651Z,64.67
2023-02-06T19:32:22.594Z,63.46
2023-02-06T19:34:50.815Z,63.62
2023-02-06T19:37:18.581Z,64.11
2023-02-06T19:39:47.805Z,64.37
2023-02-06T19:42:17.200Z,63.13
2023-02-06T19:44:46.042Z,62.31
2023-02-06T19:47:13.881Z,62.35
2023-02-06T19:49:43.907Z,61.78
2023-02-06T19:52:14.835Z,61.99
2023-02-06T19:54:43.837Z,61.66
2023-02-06T19:57:11.638Z,61.28
2023-02-06T19:59:39.916Z,61.68
2023-02-06T20:02:07.935Z,60.91
2023-02-06T20:04:36.800Z,61.23
2023-02-06T20:07:04.809Z,60.63
2023-02-06T20:09:33.760Z,61.52
2023-02-06T20:12:01.647Z,60.78
2023-02-06T20:14:30.302Z,60.41
2023-02-06T20:16:58.333Z,59.70
2023-02-06T20:19:29.011Z,59.59
2023-02-06T20:22:00.054Z,59.01
2023-02-06T20:24:31.193Z,59.60
2023-02-06T20:27:02.605Z,59.96
2023-02-06T20:29:37.418Z,59.57
2023-02-06T20:32:06.579Z,59.44
2023-02-06T20:34:37.170Z,59.24
2023-02-06T20:37:05.504Z,60.65
2023-02-06T20:39:34.851Z,60.01
2023-02-06T20:42:04.510Z,59.09
2023-02-06T20:44:32.692Z,59.76
2023-02-06T20:47:01.942Z,60.03
2023-02-06T20:49:31.488Z,60.53
2023-02-06T20:51:59.354Z,60.57
2023-02-06T20:54:27.466Z,59.77
2023-02-06T20:56:56.639Z,60.48
2023-02-06T20:59:25.767Z,60.14
2023-02-06T21:01:53.739Z,59.88
2023-02-06T21:04:22.887Z,60.00
2023-02-06T21:07:06.479Z,60.51
2023-02-06T21:09:37.292Z,59.59
2023-02-06T21:12:05.331Z,59.84
2023-02-06T21:14:34.766Z,59.63
2023-02-06T21:17:02.870Z,59.49
2023-02-06T21:19:31.148Z,59.96
2023-02-06T21:21:59.218Z,59.40
2023-02-06T21:24:27.889Z,59.71
2023-02-06T21:26:56.621Z,58.85
2023-02-06T21:29:26.540Z,59.44
2023-02-06T21:32:11.147Z,59.88
2023-02-06T21:34:39.502Z,59.94
2023-02-06T21:37:07.385Z,60.04
2023-02-06T21:39:38.169Z,59.88
2023-02-06T21:42:06.067Z,61.04
2023-02-06T21:44:34.744Z,60.80
2023-02-06T21:47:02.503Z,61.54
2023-02-06T21:49:31.113Z,61.33
2023-02-06T21:51:59.738Z,61.66
2023-02-06T21:54:29.701Z,62.11
2023-02-06T21:56:57.943Z,61.70
2023-02-06T21:59:26.080Z,60.85
2023-02-06T22:01:54.995Z,61.16
2023-02-06T22:04:23.821Z,61.03
2023-02-06T22:06:51.654Z,61.02
2023-02-06T22:09:21.053Z,61.71
2023-02-06T22:11:49.569Z,62.56
2023-02-06T22:14:18.787Z,62.36
2023-02-06T22:16:47.120Z,62.11
2023-02-06T22:19:16.899Z,62.15
2023-02-06T22:21:45.573Z,62.76
2023-02-06T22:24:14.573Z,63.22
2023-02-06T22:26:43.797Z,63.70
2023-02-06T22:29:17.885Z,64.49
2023-02-06T22:31:46.490Z,64.76
2023-02-06T22:34:17.668Z,65.35
2023-02-06T22:36:45.686Z,65.72
2023-02-06T22:39:15.394Z,65.69
2023-02-06T22:41:46.295Z,65.30
2023-02-06T22:44:16.934Z,66.53
2023-02-06T22:46:48.880Z,65.30
2023-02-06T22:49:18.753Z,68.04
2023-02-06T22:51:47.050Z,66.40
2023-02-06T22:54:15.978Z,67.12
2023-02-06T22:56:45.039Z,66.07
2023-02-06T22:59:17.904Z,65.77
2023-02-06T23:02:00.722Z,66.70
2023-02-06T23:04:31.932Z,66.46
2023-02-06T23:07:01.117Z,66.35
2023-02-06T23:09:32.473Z,65.72
2023-02-06T23:12:02.351Z,65.76
2023-02-06T23:14:32.195Z,66.41
2023-02-06T23:17:02.500Z,66.18
2023-02-06T23:19:30.933Z,66.23
2023-02-06T23:21:59.136Z,65.64
2023-02-06T23:24:27.103Z,66.84
2023-02-06T23:26:55.555Z,68.39
2023-02-06T23:29:24.514Z,68.00
2023-02-06T23:31:52.733Z,67.65
2023-02-06T23:34:23.914Z,67.38
2023-02-06T23:36:55.566Z,67.46
2023-02-06T23:39:23.905Z,68.14
2023-02-06T23:41:51.802Z,67.75
2023-02-06T23:44:20.280Z,68.07
2023-02-06T23:46:48.337Z,68.23
2023-02-06T23:49:16.602Z,68.31
2023-02-06T23:51:44.534Z,68.45
2023-02-06T23:54:12.634Z,67.81
2023-02-06T23:56:40.472Z,67.74
2023-02-06T23:59:10.828Z,66.92
